Briefing drone pour Plombieres-les-dijon

Rechercher une autre localisation

Conditions de vol :


Nous sommes le : Samedi 04 février 2023
Il est 21:24 UTC (22:24 LT)

Lever de soleil : 06:35 UTC (07:35 LT)
Coucher de soleil : 17:12 UTC (18:12 LT)

Météo

L'essentiel des conditions de vol

VIGILANCE MÉTÉO FRANCE - Côte-dOr (21)
Pas de vigilances particulieres
METAR de LFSD
LFSD 042100Z AUTO 01006KT 330V050 9999 BKN020 OVC052 09/07 Q1037

Date d'émission: 04/02/2023
Heure d'émission: 21:00 UTC
Vent: 010° (variable du 330° au 050°) pour 6 KT (11 km/h)
Visibilité horizontale: > 10 km
Plafond :
- Nuages morcelés à 2000ft (610m)
- Couvert à 5200ft (1585m)
Température: 9 °C
Point de rosée: 7 °C
Humidité: 87%
Pression (QNH): 1037 hPa
TAF de LFSD
LFSD 010600Z 0100/0124 CNL

Conditions prévues :

Heure d'émission : Bulletin éffectué le 01 à 00:00 UTC
Prévision : Valide du 01 a 00:00 UTC au 01 a 23:59 UTC
Nuages : à 0ft (0 m)
WEBCAM POUR PLOMBIERES-LES-DIJON

Réglementation

Voler en sécurité

CARTES AERONAUTIQUE 1/500.000
CARTE AZBA (Reseau basse altitude)
CARTES VAC (LFSD)
SUP AIP




Chargement des AIP...
NOTAM (PLOMBIERES-LES-DIJON + Terrain à proximité / FIR )




Chargement des NOTAMS...
CONTACT PREFECTURE 21
Côte-dOr (21) : [email protected]


Avertissement : Les données mises à disposition sont indicatives. Oxygène Drone ne pourra être tenu responsable de dégâts causés aux biens et aux personnes.